createdAt,value
2019-02-21T00:01:59.168Z,3.60
2019-02-21T00:04:27.824Z,3.60
2019-02-21T00:06:56.869Z,3.60
2019-02-21T00:09:26.041Z,3.50
2019-02-21T00:11:55.231Z,3.50
2019-02-21T00:14:25.170Z,3.50
2019-02-21T00:16:54.010Z,3.50
2019-02-21T00:19:22.956Z,3.50
2019-02-21T00:22:17.027Z,3.50
2019-02-21T00:24:45.619Z,3.50
2019-02-21T00:27:14.015Z,3.50
2019-02-21T00:29:42.687Z,3.50
2019-02-21T00:32:11.066Z,3.60
2019-02-21T00:34:39.603Z,3.60
2019-02-21T00:37:08.031Z,3.60
2019-02-21T00:39:36.603Z,3.70
2019-02-21T00:42:05.341Z,3.70
2019-02-21T00:44:34.165Z,3.70
2019-02-21T00:47:02.215Z,3.70
2019-02-21T00:49:30.267Z,3.70
2019-02-21T00:51:59.193Z,3.70
2019-02-21T00:54:27.853Z,3.70
2019-02-21T00:56:55.863Z,3.70
2019-02-21T00:59:25.580Z,3.70
2019-02-21T01:01:55.126Z,3.70
2019-02-21T01:04:23.145Z,3.70
2019-02-21T01:06:51.156Z,3.60
2019-02-21T01:09:19.463Z,3.60
2019-02-21T01:11:47.608Z,3.50
2019-02-21T01:14:15.814Z,3.40
2019-02-21T01:16:43.867Z,3.40
2019-02-21T01:19:12.047Z,3.40
2019-02-21T01:21:40.023Z,3.30
2019-02-21T01:24:08.080Z,3.30
2019-02-21T01:26:36.371Z,3.20
2019-02-21T01:29:05.556Z,3.20
2019-02-21T01:31:33.655Z,3.20
2019-02-21T01:34:01.699Z,3.20
2019-02-21T01:36:29.782Z,3.20
2019-02-21T01:38:57.926Z,3.20
2019-02-21T01:41:26.008Z,3.20
2019-02-21T01:43:54.286Z,3.20
2019-02-21T01:46:22.539Z,3.10
2019-02-21T01:48:50.741Z,3.00
2019-02-21T01:51:19.034Z,3.00
2019-02-21T01:53:47.104Z,3.00
2019-02-21T01:56:15.335Z,2.90
2019-02-21T01:58:43.289Z,2.80
2019-02-21T02:01:11.416Z,2.80
2019-02-21T02:03:39.654Z,2.70
2019-02-21T02:06:07.860Z,2.60
2019-02-21T02:08:36.355Z,2.60
2019-02-21T02:11:04.535Z,2.60
2019-02-21T02:13:32.568Z,2.60
2019-02-21T02:16:00.687Z,2.60
2019-02-21T02:18:28.647Z,2.60
2019-02-21T02:20:56.863Z,2.60
2019-02-21T02:23:24.963Z,2.60
2019-02-21T02:25:53.013Z,2.60
2019-02-21T02:28:21.245Z,2.60
2019-02-21T02:30:49.480Z,2.60
2019-02-21T02:33:19.456Z,2.60
2019-02-21T02:35:47.476Z,2.50
2019-02-21T02:38:16.411Z,2.50
2019-02-21T02:40:44.556Z,2.50
2019-02-21T02:43:12.618Z,2.40
2019-02-21T02:45:41.290Z,2.30
2019-02-21T02:48:10.894Z,2.20
2019-02-21T02:50:39.067Z,2.20
2019-02-21T02:53:07.231Z,2.10
2019-02-21T02:55:34.714Z,2.10
2019-02-21T02:58:02.235Z,2.10
2019-02-21T03:00:29.687Z,2.10
2019-02-21T03:02:59.029Z,2.20
2019-02-21T03:05:26.179Z,2.40
2019-02-21T03:07:53.441Z,2.60
2019-02-21T03:10:20.754Z,2.70
2019-02-21T03:12:48.047Z,2.70
2019-02-21T03:15:15.288Z,2.80
2019-02-21T03:17:42.714Z,2.70
2019-02-21T03:20:10.204Z,2.70
2019-02-21T03:22:37.525Z,2.60
2019-02-21T03:25:06.314Z,2.50
2019-02-21T03:27:33.659Z,2.40
2019-02-21T03:30:03.113Z,2.30
2019-02-21T03:32:30.415Z,2.20
2019-02-21T03:34:57.702Z,2.10
2019-02-21T03:37:24.966Z,2.00
2019-02-21T03:39:52.411Z,2.00
2019-02-21T03:42:19.729Z,1.90
2019-02-21T03:44:46.987Z,1.80
2019-02-21T03:47:14.382Z,1.80
2019-02-21T03:49:41.706Z,1.70
2019-02-21T03:52:10.709Z,1.60
2019-02-21T03:54:39.894Z,1.60
2019-02-21T03:57:08.121Z,1.60
2019-02-21T03:59:37.737Z,1.70
2019-02-21T04:02:05.921Z,1.80
2019-02-21T04:04:34.499Z,1.80
2019-02-21T04:07:02.741Z,1.70
2019-02-21T04:09:30.874Z,1.70
2019-02-21T04:11:59.292Z,1.80
2019-02-21T04:14:27.431Z,1.80
2019-02-21T04:16:56.635Z,1.80
2019-02-21T04:19:24.791Z,1.70
2019-02-21T04:21:53.523Z,1.70
2019-02-21T04:24:21.866Z,1.70
2019-02-21T04:26:50.074Z,1.80
2019-02-21T04:29:18.217Z,1.80
2019-02-21T04:31:46.325Z,1.60
2019-02-21T04:34:14.161Z,1.40
2019-02-21T04:36:42.244Z,1.30
2019-02-21T04:39:10.298Z,1.30
2019-02-21T04:41:38.491Z,1.20
2019-02-21T04:44:08.079Z,1.20
2019-02-21T04:46:36.401Z,1.20
2019-02-21T04:49:06.150Z,1.10
2019-02-21T04:51:34.383Z,1.00
2019-02-21T04:54:02.659Z,0.90
2019-02-21T04:56:31.078Z,0.90
2019-02-21T04:58:59.805Z,0.70
2019-02-21T05:01:27.883Z,0.70
2019-02-21T05:03:56.060Z,0.70
2019-02-21T05:06:24.328Z,0.60
2019-02-21T05:08:52.379Z,0.60
2019-02-21T05:11:20.661Z,0.50
2019-02-21T05:13:48.497Z,0.50
2019-02-21T05:16:16.768Z,0.40
2019-02-21T05:18:44.991Z,0.40
2019-02-21T05:21:14.657Z,0.30
2019-02-21T05:23:42.862Z,0.30
2019-02-21T05:26:13.295Z,0.30
2019-02-21T05:28:41.974Z,0.30
2019-02-21T05:31:19.776Z,0.40
2019-02-21T05:34:01.157Z,0.40
2019-02-21T05:36:57.676Z,0.30
2019-02-21T05:40:02.972Z,0.30
2019-02-21T05:42:50.020Z,0.30
2019-02-21T05:45:43.085Z,0.20
2019-02-21T05:48:21.597Z,0.20
2019-02-21T05:51:10.703Z,0.20
2019-02-21T05:54:12.608Z,0.20
2019-02-21T05:57:00.455Z,0.20
2019-02-21T05:59:35.905Z,0.20
2019-02-21T06:02:28.614Z,0.20
2019-02-21T06:05:03.870Z,0.10
2019-02-21T06:07:49.331Z,0.00
2019-02-21T06:10:23.627Z,0.00
2019-02-21T06:13:15.050Z,0.00
2019-02-21T06:16:04.566Z,0.00
2019-02-21T06:18:54.520Z,0.00
2019-02-21T06:21:39.679Z,0.10
2019-02-21T06:24:23.203Z,0.10
2019-02-21T06:27:12.151Z,0.10
2019-02-21T06:29:44.112Z,0.10
2019-02-21T06:32:14.216Z,0.20
2019-02-21T06:34:40.479Z,0.20
2019-02-21T06:37:12.461Z,0.20
2019-02-21T06:39:39.161Z,0.20
2019-02-21T06:42:06.691Z,0.30
2019-02-21T06:44:33.943Z,0.40
2019-02-21T06:47:01.486Z,0.50
2019-02-21T06:49:32.593Z,0.60
2019-02-21T06:51:58.103Z,0.80
2019-02-21T06:54:25.327Z,1.00
2019-02-21T06:56:52.834Z,1.20
2019-02-21T06:59:20.024Z,1.30
2019-02-21T07:01:49.112Z,1.40
2019-02-21T07:04:16.312Z,1.60
2019-02-21T07:06:43.587Z,1.70
2019-02-21T07:09:11.714Z,1.80
2019-02-21T07:11:39.952Z,1.80
2019-02-21T07:14:08.176Z,1.90
2019-02-21T07:16:37.343Z,2.00
2019-02-21T07:19:05.945Z,2.10
2019-02-21T07:21:36.500Z,2.20
2019-02-21T07:24:03.999Z,2.30
2019-02-21T07:26:32.315Z,2.40
2019-02-21T07:29:00.554Z,2.50
2019-02-21T07:31:29.644Z,2.70
2019-02-21T07:34:01.374Z,2.80
2019-02-21T07:36:28.741Z,2.90
2019-02-21T07:39:13.642Z,3.00
2019-02-21T07:41:26.877Z,3.10
2019-02-21T07:43:55.059Z,3.20
2019-02-21T07:46:24.895Z,3.40
2019-02-21T07:48:52.414Z,3.50
2019-02-21T07:51:19.854Z,3.70
2019-02-21T07:53:47.194Z,3.80
2019-02-21T07:56:14.684Z,4.00
2019-02-21T07:58:42.137Z,4.10
2019-02-21T08:01:10.414Z,4.20
2019-02-21T08:03:44.202Z,4.30
2019-02-21T08:06:06.856Z,4.50
2019-02-21T08:08:34.318Z,4.60
2019-02-21T08:11:03.274Z,4.80
2019-02-21T08:13:30.630Z,4.90
2019-02-21T08:15:57.924Z,5.10
2019-02-21T08:18:25.348Z,5.20
2019-02-21T08:20:52.756Z,5.40
2019-02-21T08:23:20.070Z,5.60
2019-02-21T08:25:47.342Z,5.70
2019-02-21T08:28:14.762Z,5.90
2019-02-21T08:30:42.208Z,6.10
2019-02-21T08:33:31.751Z,6.10
2019-02-21T08:35:59.097Z,6.20
2019-02-21T08:38:26.389Z,6.30
2019-02-21T08:40:53.791Z,6.40
2019-02-21T08:43:22.036Z,6.50
2019-02-21T08:45:50.169Z,6.60
2019-02-21T08:48:18.299Z,6.70
2019-02-21T08:50:46.244Z,6.80
2019-02-21T08:53:14.350Z,6.90
2019-02-21T08:55:42.192Z,7.00
2019-02-21T08:58:10.388Z,7.10
2019-02-21T09:00:38.439Z,7.10
2019-02-21T09:03:06.623Z,7.30
2019-02-21T09:05:34.825Z,7.40
2019-02-21T09:08:03.376Z,7.50
2019-02-21T09:10:31.284Z,7.70
2019-02-21T09:12:59.299Z,7.90
2019-02-21T09:15:29.199Z,8.20
2019-02-21T09:17:56.767Z,8.50
2019-02-21T09:20:25.210Z,8.70
2019-02-21T09:22:53.114Z,9.00
2019-02-21T09:25:21.294Z,9.10
2019-02-21T09:27:49.494Z,9.20
2019-02-21T09:30:17.841Z,9.20
2019-02-21T09:32:46.884Z,9.20
2019-02-21T09:35:15.122Z,9.20
2019-02-21T09:37:43.210Z,9.20
2019-02-21T09:40:12.313Z,9.00
2019-02-21T09:42:40.686Z,8.70
2019-02-21T09:45:10.965Z,8.60
2019-02-21T09:47:38.885Z,8.50
2019-02-21T09:50:08.548Z,8.50
2019-02-21T09:52:36.635Z,8.40
2019-02-21T09:55:06.076Z,8.40
2019-02-21T09:57:34.187Z,8.40
2019-02-21T10:00:02.312Z,8.50
2019-02-21T10:02:30.232Z,8.70
2019-02-21T10:05:05.077Z,9.00
2019-02-21T10:07:28.344Z,9.00
2019-02-21T10:09:56.641Z,9.00
2019-02-21T10:12:26.719Z,9.00
2019-02-21T10:14:57.678Z,9.00
2019-02-21T10:17:26.703Z,9.10
2019-02-21T10:19:54.499Z,9.30
2019-02-21T10:22:22.633Z,9.50
2019-02-21T10:24:50.809Z,9.70
2019-02-21T10:27:19.099Z,9.90
2019-02-21T10:29:47.136Z,9.90
2019-02-21T10:32:15.354Z,10.10
2019-02-21T10:34:43.658Z,10.20
2019-02-21T10:37:11.934Z,10.20
2019-02-21T10:39:40.263Z,10.20
2019-02-21T10:42:10.092Z,10.30
2019-02-21T10:44:38.387Z,10.30
2019-02-21T10:47:06.669Z,10.40
2019-02-21T10:49:34.949Z,10.50
2019-02-21T10:52:03.164Z,10.60
2019-02-21T10:54:31.422Z,10.50
2019-02-21T10:56:59.800Z,10.50
2019-02-21T10:59:27.882Z,10.50
2019-02-21T11:01:56.075Z,10.50
2019-02-21T11:04:24.404Z,10.50
2019-02-21T11:06:52.520Z,10.70
2019-02-21T11:09:21.915Z,10.90
2019-02-21T11:11:50.157Z,11.10
2019-02-21T11:14:18.347Z,11.00
2019-02-21T11:16:46.515Z,11.10
2019-02-21T11:19:14.728Z,11.20
2019-02-21T11:21:42.940Z,11.20
2019-02-21T11:24:11.127Z,11.20
2019-02-21T11:26:39.379Z,11.20
2019-02-21T11:29:07.561Z,11.30
2019-02-21T11:31:35.874Z,11.30
2019-02-21T11:34:04.044Z,11.30
2019-02-21T11:36:32.119Z,11.30
2019-02-21T11:39:00.371Z,11.50
2019-02-21T11:41:28.631Z,11.80
2019-02-21T11:43:56.861Z,11.60
2019-02-21T11:46:25.292Z,11.50
2019-02-21T11:48:53.416Z,11.50
2019-02-21T11:51:21.803Z,11.40
2019-02-21T11:53:49.955Z,11.60
2019-02-21T11:56:18.009Z,11.70
2019-02-21T11:58:46.105Z,11.90
2019-02-21T12:01:14.245Z,12.10
2019-02-21T12:03:42.543Z,11.90
2019-02-21T12:06:10.677Z,11.80
2019-02-21T12:08:40.864Z,11.90
2019-02-21T12:11:09.107Z,11.70
2019-02-21T12:13:37.348Z,11.70
2019-02-21T12:16:05.671Z,11.70
2019-02-21T12:18:33.801Z,11.70
2019-02-21T12:21:01.979Z,11.60
2019-02-21T12:23:30.193Z,11.60
2019-02-21T12:25:58.320Z,11.60
2019-02-21T12:28:26.243Z,11.60
2019-02-21T12:30:54.469Z,11.60
2019-02-21T12:33:22.567Z,11.70
2019-02-21T12:35:50.604Z,11.80
2019-02-21T12:38:18.903Z,12.10
2019-02-21T12:40:47.004Z,12.30
2019-02-21T12:43:15.246Z,12.30
2019-02-21T12:45:43.525Z,12.50
2019-02-21T12:48:11.375Z,12.50
2019-02-21T12:50:44.331Z,12.70
2019-02-21T12:53:09.374Z,12.70
2019-02-21T12:55:37.659Z,12.70
2019-02-21T12:58:05.715Z,12.80
2019-02-21T13:00:33.707Z,12.80
2019-02-21T13:03:01.853Z,12.90
2019-02-21T13:05:40.343Z,12.80
2019-02-21T13:08:01.032Z,12.70
2019-02-21T13:10:29.253Z,12.50
2019-02-21T13:12:57.344Z,12.30
2019-02-21T13:15:25.483Z,12.10
2019-02-21T13:17:53.788Z,12.00
2019-02-21T13:20:21.939Z,12.00
2019-02-21T13:22:50.039Z,11.90
2019-02-21T13:25:19.871Z,11.70
2019-02-21T13:27:49.688Z,11.70
2019-02-21T13:30:18.236Z,11.60
2019-02-21T13:32:46.201Z,11.40
2019-02-21T13:35:14.412Z,11.20
2019-02-21T13:37:42.660Z,11.10
2019-02-21T13:40:11.941Z,11.00
2019-02-21T13:42:39.890Z,11.00
2019-02-21T13:45:08.405Z,11.20
2019-02-21T13:47:39.139Z,11.30
2019-02-21T13:50:09.285Z,11.40
2019-02-21T13:52:37.535Z,11.50
2019-02-21T13:55:05.814Z,11.70
2019-02-21T13:57:33.944Z,12.00
2019-02-21T14:00:01.944Z,12.30
2019-02-21T14:02:29.993Z,12.60
2019-02-21T14:04:58.883Z,12.70
2019-02-21T14:07:27.091Z,12.90
2019-02-21T14:09:57.935Z,13.10
2019-02-21T14:12:26.636Z,13.00
2019-02-21T14:14:54.952Z,13.10
2019-02-21T14:17:23.152Z,12.90
2019-02-21T14:19:53.205Z,12.70
2019-02-21T14:22:21.371Z,12.50
2019-02-21T14:24:49.597Z,12.70
2019-02-21T14:27:26.343Z,12.90
2019-02-21T14:29:54.335Z,13.00
2019-02-21T14:32:22.505Z,12.90
2019-02-21T14:34:50.728Z,13.00
2019-02-21T14:37:19.879Z,12.90
2019-02-21T14:39:49.712Z,12.80
2019-02-21T14:42:20.124Z,12.80
2019-02-21T14:44:49.568Z,12.50
2019-02-21T14:47:28.766Z,12.80
2019-02-21T14:50:11.847Z,13.00
2019-02-21T14:52:43.706Z,13.20
2019-02-21T14:55:17.646Z,13.40
2019-02-21T14:57:47.441Z,13.40
2019-02-21T15:00:17.883Z,13.30
2019-02-21T15:03:03.685Z,13.20
2019-02-21T15:05:30.869Z,13.20
2019-02-21T15:07:58.923Z,13.10
2019-02-21T15:10:26.966Z,12.70
2019-02-21T15:12:56.859Z,12.40
2019-02-21T15:15:24.943Z,12.20
2019-02-21T15:17:53.065Z,12.10
2019-02-21T15:20:21.088Z,12.00
2019-02-21T15:22:49.081Z,11.90
2019-02-21T15:25:17.439Z,11.80
2019-02-21T15:27:45.766Z,11.70
2019-02-21T15:30:15.829Z,11.60
2019-02-21T15:32:56.902Z,11.50
2019-02-21T15:35:25.924Z,11.40
2019-02-21T15:37:53.887Z,11.20
2019-02-21T15:40:22.073Z,11.20
2019-02-21T15:42:52.621Z,11.20
2019-02-21T15:45:23.459Z,11.20
2019-02-21T15:47:50.512Z,11.10
2019-02-21T15:50:19.906Z,11.00
2019-02-21T15:52:49.812Z,10.90
2019-02-21T15:55:17.759Z,10.80
2019-02-21T15:57:45.739Z,10.80
2019-02-21T16:00:15.623Z,10.70
2019-02-21T16:02:43.812Z,10.70
2019-02-21T16:05:12.068Z,10.60
2019-02-21T16:07:40.276Z,10.50
2019-02-21T16:10:10.771Z,10.40
2019-02-21T16:12:39.091Z,10.40
2019-02-21T16:15:08.405Z,10.50
2019-02-21T16:17:37.089Z,10.50
2019-02-21T16:20:07.224Z,10.40
2019-02-21T16:22:43.161Z,10.30
2019-02-21T16:25:16.031Z,10.30
2019-02-21T16:27:44.657Z,10.20
2019-02-21T16:30:13.352Z,10.20
2019-02-21T16:32:41.585Z,10.10
2019-02-21T16:35:11.979Z,10.10
2019-02-21T16:37:51.391Z,10.10
2019-02-21T16:40:21.142Z,10.10
2019-02-21T16:42:49.889Z,10.00
2019-02-21T16:45:17.978Z,10.00
2019-02-21T16:47:45.988Z,9.90
2019-02-21T16:50:14.363Z,9.90
2019-02-21T16:52:42.994Z,9.90
2019-02-21T16:55:28.650Z,10.00
2019-02-21T16:58:00.571Z,9.90
2019-02-21T17:00:42.422Z,9.90
2019-02-21T17:03:01.419Z,9.80
2019-02-21T17:05:29.699Z,9.60
2019-02-21T17:07:58.594Z,9.50
2019-02-21T17:10:30.380Z,9.40
2019-02-21T17:12:59.485Z,9.40
2019-02-21T17:15:27.409Z,9.30
2019-02-21T17:17:55.769Z,9.30
2019-02-21T17:20:24.178Z,9.20
2019-02-21T17:22:52.133Z,9.10
2019-02-21T17:25:20.428Z,9.10
2019-02-21T17:27:48.852Z,9.10
2019-02-21T17:30:19.123Z,9.20
2019-02-21T17:32:47.698Z,9.20
2019-02-21T17:35:50.409Z,9.20
2019-02-21T17:38:40.897Z,9.30
2019-02-21T17:41:35.333Z,9.30
2019-02-21T17:44:36.003Z,9.20
2019-02-21T17:47:32.754Z,9.10
2019-02-21T17:50:24.544Z,9.10
2019-02-21T17:53:22.464Z,8.90
2019-02-21T17:56:15.253Z,8.80
2019-02-21T17:59:14.277Z,8.70
2019-02-21T18:02:10.867Z,8.60
2019-02-21T18:05:06.358Z,8.60
2019-02-21T18:08:14.992Z,8.60
2019-02-21T18:11:12.489Z,8.50
2019-02-21T18:14:18.729Z,8.40
2019-02-21T18:17:13.378Z,8.30
2019-02-21T18:20:05.706Z,8.30
2019-02-21T18:22:53.261Z,8.40
2019-02-21T18:25:52.054Z,8.30
2019-02-21T18:28:45.455Z,8.30
2019-02-21T18:31:43.961Z,8.30
2019-02-21T18:34:30.418Z,8.30
2019-02-21T18:37:29.739Z,8.30
2019-02-21T18:40:17.267Z,8.30
2019-02-21T18:42:54.432Z,8.20
2019-02-21T18:45:36.696Z,8.20
2019-02-21T18:48:24.428Z,8.20
2019-02-21T18:51:11.636Z,8.20
2019-02-21T18:53:56.043Z,8.20
2019-02-21T18:56:41.102Z,8.10
2019-02-21T18:59:31.729Z,8.10
2019-02-21T19:02:12.272Z,8.00
2019-02-21T19:04:50.684Z,8.00
2019-02-21T19:07:20.742Z,8.00
2019-02-21T19:09:49.634Z,8.00
2019-02-21T19:12:21.340Z,8.00
2019-02-21T19:15:08.698Z,8.10
2019-02-21T19:17:43.303Z,8.10
2019-02-21T19:20:12.367Z,8.10
2019-02-21T19:22:42.124Z,8.10
2019-02-21T19:25:23.951Z,8.00
2019-02-21T19:27:54.122Z,8.00
2019-02-21T19:30:26.731Z,7.90
2019-02-21T19:33:17.862Z,7.90
2019-02-21T19:39:01.350Z,7.80
2019-02-21T19:41:33.242Z,7.80
2019-02-21T19:44:09.003Z,7.80
2019-02-21T19:46:35.121Z,7.70
2019-02-21T19:49:06.820Z,7.70
2019-02-21T19:51:39.182Z,7.80
2019-02-21T19:54:19.701Z,7.80
2019-02-21T19:56:50.893Z,7.80
2019-02-21T19:59:46.319Z,7.80
2019-02-21T20:02:17.263Z,7.80
2019-02-21T20:04:47.288Z,7.80
2019-02-21T20:07:16.600Z,7.70
2019-02-21T20:09:49.762Z,7.70
2019-02-21T20:12:22.855Z,7.70
2019-02-21T20:14:53.332Z,7.80
2019-02-21T20:17:22.614Z,7.70
2019-02-21T20:19:53.665Z,7.80
2019-02-21T20:22:23.890Z,7.80
2019-02-21T20:24:51.604Z,7.90
2019-02-21T20:27:20.187Z,8.00
2019-02-21T20:29:55.219Z,7.90
2019-02-21T20:32:28.805Z,7.90
2019-02-21T20:35:02.819Z,7.90
2019-02-21T20:37:34.184Z,7.90
2019-02-21T20:40:04.784Z,7.80
2019-02-21T20:42:39.521Z,7.70
2019-02-21T20:45:15.311Z,7.70
2019-02-21T20:47:52.782Z,7.70
2019-02-21T20:50:26.359Z,7.70
2019-02-21T20:52:57.368Z,7.70
2019-02-21T20:55:43.482Z,7.70
2019-02-21T20:58:07.199Z,7.70
2019-02-21T21:00:37.633Z,7.70
2019-02-21T21:03:15.636Z,7.70
2019-02-21T21:05:57.803Z,7.70
2019-02-21T21:08:28.503Z,7.60
2019-02-21T21:11:04.424Z,7.60
2019-02-21T21:13:47.906Z,7.50
2019-02-21T21:16:31.227Z,7.40
2019-02-21T21:19:13.369Z,7.30
2019-02-21T21:21:52.408Z,7.20
2019-02-21T21:24:36.429Z,7.10
2019-02-21T21:27:24.077Z,7.00
2019-02-21T21:30:23.157Z,7.00
2019-02-21T21:33:09.996Z,6.90
2019-02-21T21:35:53.652Z,6.90
2019-02-21T21:38:37.644Z,6.90
2019-02-21T21:41:16.743Z,7.00
2019-02-21T21:43:59.729Z,7.20
2019-02-21T21:46:41.389Z,7.30
2019-02-21T21:49:26.417Z,7.30
2019-02-21T21:52:14.363Z,7.30
2019-02-21T21:54:53.078Z,7.30
2019-02-21T21:57:38.138Z,7.30
2019-02-21T22:00:22.107Z,7.20
2019-02-21T22:03:08.235Z,7.30
2019-02-21T22:05:59.359Z,7.30
2019-02-21T22:08:46.948Z,7.20
2019-02-21T22:11:33.819Z,7.20
2019-02-21T22:14:24.004Z,7.10
2019-02-21T22:17:23.749Z,7.00
2019-02-21T22:20:09.090Z,7.00
2019-02-21T22:22:54.711Z,7.10
2019-02-21T22:25:44.465Z,7.10
2019-02-21T22:28:28.643Z,7.00
2019-02-21T22:31:13.587Z,7.00
2019-02-21T22:33:56.087Z,7.00
2019-02-21T22:36:48.634Z,7.00
2019-02-21T22:39:34.312Z,6.90
2019-02-21T22:42:16.302Z,6.90
2019-02-21T22:45:01.318Z,6.90
2019-02-21T22:47:48.873Z,6.90
2019-02-21T22:50:35.704Z,7.10
2019-02-21T22:53:29.135Z,7.10
2019-02-21T22:56:12.461Z,7.10
2019-02-21T22:58:56.807Z,7.00
2019-02-21T23:01:37.859Z,7.00
2019-02-21T23:04:30.236Z,7.00
2019-02-21T23:07:17.026Z,7.10
2019-02-21T23:09:46.145Z,7.10
2019-02-21T23:12:13.799Z,7.20
2019-02-21T23:14:41.323Z,7.20
2019-02-21T23:17:08.798Z,7.10
2019-02-21T23:19:36.066Z,7.10
2019-02-21T23:22:03.488Z,7.00
2019-02-21T23:24:30.903Z,7.00
2019-02-21T23:26:59.547Z,7.00
2019-02-21T23:29:27.143Z,7.00
2019-02-21T23:31:55.908Z,7.00
2019-02-21T23:34:54.854Z,6.90
2019-02-21T23:37:22.238Z,6.90
2019-02-21T23:39:49.696Z,6.80
2019-02-21T23:42:18.192Z,6.80
2019-02-21T23:44:45.719Z,6.80
2019-02-21T23:47:13.117Z,6.80
2019-02-21T23:49:40.442Z,6.80
2019-02-21T23:52:07.895Z,6.70
2019-02-21T23:54:35.371Z,6.70
2019-02-21T23:57:03.511Z,6.70
2019-02-21T23:59:31.007Z,6.70
